sensor_id;sensor_type;location;lat;lon;timestamp;P1;durP1;ratioP1;P2;durP2;ratioP2
52266;SDS011;38223;50.940;4.034;2023-06-10T00:02:32;7.08;;;6.42;;
52266;SDS011;38223;50.940;4.034;2023-06-10T00:05:16;7.40;;;6.87;;
52266;SDS011;38223;50.940;4.034;2023-06-10T00:07:47;6.83;;;6.22;;
52266;SDS011;38223;50.940;4.034;2023-06-10T00:10:29;11.28;;;6.67;;
52266;SDS011;38223;50.940;4.034;2023-06-10T00:13:03;9.23;;;6.42;;
52266;SDS011;38223;50.940;4.034;2023-06-10T00:15:40;8.23;;;6.97;;
52266;SDS011;38223;50.940;4.034;2023-06-10T00:18:14;6.62;;;6.08;;
52266;SDS011;38223;50.940;4.034;2023-06-10T00:20:51;8.65;;;6.80;;
52266;SDS011;38223;50.940;4.034;2023-06-10T00:23:26;7.08;;;6.20;;
52266;SDS011;38223;50.940;4.034;2023-06-10T00:26:15;7.08;;;6.50;;
52266;SDS011;38223;50.940;4.034;2023-06-10T00:28:48;7.10;;;6.50;;
52266;SDS011;38223;50.940;4.034;2023-06-10T00:31:31;7.28;;;6.67;;
52266;SDS011;38223;50.940;4.034;2023-06-10T00:34:19;7.75;;;6.03;;
52266;SDS011;38223;50.940;4.034;2023-06-10T00:36:54;7.20;;;6.53;;
52266;SDS011;38223;50.940;4.034;2023-06-10T00:39:36;7.45;;;6.62;;
52266;SDS011;38223;50.940;4.034;2023-06-10T00:42:13;7.20;;;6.37;;
52266;SDS011;38223;50.940;4.034;2023-06-10T00:44:45;7.17;;;6.53;;
52266;SDS011;38223;50.940;4.034;2023-06-10T00:47:21;7.08;;;6.58;;
52266;SDS011;38223;50.940;4.034;2023-06-10T00:50:12;7.60;;;6.35;;
52266;SDS011;38223;50.940;4.034;2023-06-10T00:52:48;7.90;;;7.10;;
52266;SDS011;38223;50.940;4.034;2023-06-10T00:55:24;7.85;;;6.80;;
52266;SDS011;38223;50.940;4.034;2023-06-10T00:57:56;7.85;;;7.15;;
52266;SDS011;38223;50.940;4.034;2023-06-10T01:00:42;8.68;;;6.40;;
52266;SDS011;38223;50.940;4.034;2023-06-10T01:03:26;9.03;;;7.33;;
52266;SDS011;38223;50.940;4.034;2023-06-10T01:06:04;7.92;;;7.10;;
52266;SDS011;38223;50.940;4.034;2023-06-10T01:11:38;12.70;;;7.08;;
52266;SDS011;38223;50.940;4.034;2023-06-10T01:14:23;7.22;;;6.58;;
52266;SDS011;38223;50.940;4.034;2023-06-10T01:17:00;7.45;;;6.75;;
52266;SDS011;38223;50.940;4.034;2023-06-10T01:19:42;7.50;;;6.80;;
52266;SDS011;38223;50.940;4.034;2023-06-10T01:22:21;10.10;;;6.85;;
52266;SDS011;38223;50.940;4.034;2023-06-10T01:24:57;11.12;;;7.15;;
52266;SDS011;38223;50.940;4.034;2023-06-10T01:27:35;8.05;;;7.05;;
52266;SDS011;38223;50.940;4.034;2023-06-10T01:30:18;11.57;;;7.53;;
52266;SDS011;38223;50.940;4.034;2023-06-10T01:33:02;10.55;;;6.75;;
52266;SDS011;38223;50.940;4.034;2023-06-10T01:35:47;8.38;;;7.33;;
52266;SDS011;38223;50.940;4.034;2023-06-10T01:38:28;8.95;;;6.97;;
52266;SDS011;38223;50.940;4.034;2023-06-10T01:41:04;7.28;;;6.67;;
52266;SDS011;38223;50.940;4.034;2023-06-10T01:43:39;7.78;;;7.17;;
52266;SDS011;38223;50.940;4.034;2023-06-10T01:46:10;7.92;;;7.17;;
52266;SDS011;38223;50.940;4.034;2023-06-10T01:48:44;7.45;;;6.87;;
52266;SDS011;38223;50.940;4.034;2023-06-10T01:51:25;8.28;;;7.58;;
52266;SDS011;38223;50.940;4.034;2023-06-10T01:54:01;8.35;;;7.65;;
52266;SDS011;38223;50.940;4.034;2023-06-10T01:56:43;9.00;;;7.15;;
52266;SDS011;38223;50.940;4.034;2023-06-10T01:59:15;12.35;;;7.37;;
52266;SDS011;38223;50.940;4.034;2023-06-10T02:01:49;8.35;;;7.35;;
52266;SDS011;38223;50.940;4.034;2023-06-10T02:04:22;8.60;;;6.97;;
52266;SDS011;38223;50.940;4.034;2023-06-10T02:09:30;7.17;;;6.67;;
52266;SDS011;38223;50.940;4.034;2023-06-10T02:12:09;7.62;;;7.00;;
52266;SDS011;38223;50.940;4.034;2023-06-10T02:14:46;7.92;;;7.22;;
52266;SDS011;38223;50.940;4.034;2023-06-10T02:17:17;7.67;;;7.17;;
52266;SDS011;38223;50.940;4.034;2023-06-10T02:19:53;7.78;;;7.05;;
52266;SDS011;38223;50.940;4.034;2023-06-10T02:22:28;7.97;;;7.28;;
52266;SDS011;38223;50.940;4.034;2023-06-10T02:25:04;8.25;;;7.42;;
52266;SDS011;38223;50.940;4.034;2023-06-10T02:27:49;7.65;;;6.92;;
52266;SDS011;38223;50.940;4.034;2023-06-10T02:30:36;8.75;;;6.97;;
52266;SDS011;38223;50.940;4.034;2023-06-10T02:33:15;9.38;;;7.25;;
52266;SDS011;38223;50.940;4.034;2023-06-10T02:35:52;8.45;;;7.65;;
52266;SDS011;38223;50.940;4.034;2023-06-10T02:38:40;7.70;;;7.05;;
52266;SDS011;38223;50.940;4.034;2023-06-10T02:41:17;8.38;;;7.58;;
52266;SDS011;38223;50.940;4.034;2023-06-10T02:43:50;8.18;;;7.47;;
52266;SDS011;38223;50.940;4.034;2023-06-10T02:46:25;8.20;;;7.55;;
52266;SDS011;38223;50.940;4.034;2023-06-10T02:49:01;9.13;;;7.83;;
52266;SDS011;38223;50.940;4.034;2023-06-10T02:51:44;8.70;;;7.95;;
52266;SDS011;38223;50.940;4.034;2023-06-10T02:54:20;8.75;;;8.03;;
52266;SDS011;38223;50.940;4.034;2023-06-10T02:57:01;8.50;;;7.62;;
52266;SDS011;38223;50.940;4.034;2023-06-10T02:59:35;9.68;;;8.78;;
52266;SDS011;38223;50.940;4.034;2023-06-10T03:02:11;8.65;;;7.83;;
52266;SDS011;38223;50.940;4.034;2023-06-10T03:04:51;8.98;;;8.18;;
52266;SDS011;38223;50.940;4.034;2023-06-10T03:10:08;8.85;;;8.18;;
52266;SDS011;38223;50.940;4.034;2023-06-10T03:12:42;8.73;;;7.92;;
52266;SDS011;38223;50.940;4.034;2023-06-10T03:15:21;11.20;;;8.48;;
52266;SDS011;38223;50.940;4.034;2023-06-10T03:18:04;8.30;;;7.70;;
52266;SDS011;38223;50.940;4.034;2023-06-10T03:20:45;8.85;;;8.10;;
52266;SDS011;38223;50.940;4.034;2023-06-10T03:23:30;8.98;;;8.00;;
52266;SDS011;38223;50.940;4.034;2023-06-10T03:26:09;10.53;;;8.63;;
52266;SDS011;38223;50.940;4.034;2023-06-10T03:28:41;9.25;;;8.20;;
52266;SDS011;38223;50.940;4.034;2023-06-10T03:31:23;9.65;;;8.65;;
52266;SDS011;38223;50.940;4.034;2023-06-10T03:34:02;9.33;;;8.63;;
52266;SDS011;38223;50.940;4.034;2023-06-10T03:36:42;9.58;;;8.18;;
52266;SDS011;38223;50.940;4.034;2023-06-10T03:39:15;9.88;;;9.05;;
52266;SDS011;38223;50.940;4.034;2023-06-10T03:41:55;10.60;;;8.75;;
52266;SDS011;38223;50.940;4.034;2023-06-10T03:44:42;9.70;;;8.50;;
52266;SDS011;38223;50.940;4.034;2023-06-10T03:47:14;9.10;;;8.30;;
52266;SDS011;38223;50.940;4.034;2023-06-10T03:49:55;9.25;;;8.40;;
52266;SDS011;38223;50.940;4.034;2023-06-10T03:52:30;10.68;;;8.23;;
52266;SDS011;38223;50.940;4.034;2023-06-10T03:55:01;10.05;;;9.05;;
52266;SDS011;38223;50.940;4.034;2023-06-10T03:57:38;9.00;;;8.40;;
52266;SDS011;38223;50.940;4.034;2023-06-10T04:00:11;9.80;;;8.95;;
52266;SDS011;38223;50.940;4.034;2023-06-10T04:02:51;8.80;;;8.08;;
52266;SDS011;38223;50.940;4.034;2023-06-10T04:05:30;9.98;;;8.68;;
52266;SDS011;38223;50.940;4.034;2023-06-10T04:08:10;9.90;;;8.48;;
52266;SDS011;38223;50.940;4.034;2023-06-10T04:10:53;9.47;;;8.77;;
52266;SDS011;38223;50.940;4.034;2023-06-10T04:13:27;9.48;;;8.68;;
52266;SDS011;38223;50.940;4.034;2023-06-10T04:16:09;9.30;;;8.45;;
52266;SDS011;38223;50.940;4.034;2023-06-10T04:19:06;10.72;;;9.63;;
52266;SDS011;38223;50.940;4.034;2023-06-10T04:21:42;9.70;;;8.65;;
52266;SDS011;38223;50.940;4.034;2023-06-10T04:24:13;11.35;;;9.03;;
52266;SDS011;38223;50.940;4.034;2023-06-10T04:26:54;10.10;;;9.15;;
52266;SDS011;38223;50.940;4.034;2023-06-10T04:29:25;10.63;;;9.28;;
52266;SDS011;38223;50.940;4.034;2023-06-10T04:31:59;9.45;;;8.70;;
52266;SDS011;38223;50.940;4.034;2023-06-10T04:34:33;12.47;;;8.20;;
52266;SDS011;38223;50.940;4.034;2023-06-10T04:37:08;10.43;;;9.20;;
52266;SDS011;38223;50.940;4.034;2023-06-10T04:39:44;10.48;;;9.53;;
52266;SDS011;38223;50.940;4.034;2023-06-10T04:44:52;9.58;;;8.73;;
52266;SDS011;38223;50.940;4.034;2023-06-10T04:47:32;9.65;;;8.68;;
52266;SDS011;38223;50.940;4.034;2023-06-10T04:50:17;10.35;;;9.38;;
52266;SDS011;38223;50.940;4.034;2023-06-10T04:52:49;10.68;;;9.68;;
52266;SDS011;38223;50.940;4.034;2023-06-10T04:55:26;10.03;;;9.18;;
52266;SDS011;38223;50.940;4.034;2023-06-10T04:58:00;11.48;;;8.88;;
52266;SDS011;38223;50.940;4.034;2023-06-10T05:00:32;9.50;;;8.60;;
52266;SDS011;38223;50.940;4.034;2023-06-10T05:03:06;9.80;;;9.03;;
52266;SDS011;38223;50.940;4.034;2023-06-10T05:05:49;9.60;;;8.90;;
52266;SDS011;38223;50.940;4.034;2023-06-10T05:08:29;9.75;;;9.05;;
52266;SDS011;38223;50.940;4.034;2023-06-10T05:11:03;10.00;;;9.03;;
52266;SDS011;38223;50.940;4.034;2023-06-10T05:13:33;10.40;;;8.55;;
52266;SDS011;38223;50.940;4.034;2023-06-10T05:16:16;11.25;;;9.73;;
52266;SDS011;38223;50.940;4.034;2023-06-10T05:18:54;14.28;;;9.75;;
52266;SDS011;38223;50.940;4.034;2023-06-10T05:21:27;11.12;;;8.85;;
52266;SDS011;38223;50.940;4.034;2023-06-10T05:24:07;12.53;;;9.05;;
52266;SDS011;38223;50.940;4.034;2023-06-10T05:26:41;10.88;;;9.93;;
52266;SDS011;38223;50.940;4.034;2023-06-10T05:29:33;9.93;;;9.15;;
52266;SDS011;38223;50.940;4.034;2023-06-10T05:32:04;10.85;;;9.83;;
52266;SDS011;38223;50.940;4.034;2023-06-10T05:34:47;10.75;;;9.85;;
52266;SDS011;38223;50.940;4.034;2023-06-10T05:37:21;11.10;;;10.25;;
52266;SDS011;38223;50.940;4.034;2023-06-10T05:39:53;11.12;;;9.88;;
52266;SDS011;38223;50.940;4.034;2023-06-10T05:42:45;10.00;;;9.20;;
52266;SDS011;38223;50.940;4.034;2023-06-10T05:45:25;9.83;;;9.05;;
52266;SDS011;38223;50.940;4.034;2023-06-10T05:48:02;16.15;;;9.70;;
52266;SDS011;38223;50.940;4.034;2023-06-10T05:50:34;11.30;;;9.70;;
52266;SDS011;38223;50.940;4.034;2023-06-10T05:53:27;10.03;;;9.00;;
52266;SDS011;38223;50.940;4.034;2023-06-10T05:56:06;10.88;;;9.83;;
52266;SDS011;38223;50.940;4.034;2023-06-10T05:58:42;13.03;;;10.08;;
52266;SDS011;38223;50.940;4.034;2023-06-10T06:01:24;11.80;;;9.10;;
52266;SDS011;38223;50.940;4.034;2023-06-10T06:03:55;10.35;;;9.45;;
52266;SDS011;38223;50.940;4.034;2023-06-10T06:06:34;10.98;;;10.05;;
52266;SDS011;38223;50.940;4.034;2023-06-10T06:09:10;10.78;;;9.70;;
52266;SDS011;38223;50.940;4.034;2023-06-10T06:11:52;12.80;;;9.80;;
52266;SDS011;38223;50.940;4.034;2023-06-10T06:14:31;11.68;;;9.78;;
52266;SDS011;38223;50.940;4.034;2023-06-10T06:17:11;10.05;;;9.20;;
52266;SDS011;38223;50.940;4.034;2023-06-10T06:19:46;10.50;;;9.58;;
52266;SDS011;38223;50.940;4.034;2023-06-10T06:22:18;10.72;;;9.83;;
52266;SDS011;38223;50.940;4.034;2023-06-10T06:24:53;11.03;;;9.68;;
52266;SDS011;38223;50.940;4.034;2023-06-10T06:27:27;15.25;;;9.73;;
52266;SDS011;38223;50.940;4.034;2023-06-10T06:30:00;10.78;;;9.80;;
52266;SDS011;38223;50.940;4.034;2023-06-10T06:32:37;11.35;;;9.95;;
52266;SDS011;38223;50.940;4.034;2023-06-10T06:35:11;10.85;;;9.43;;
52266;SDS011;38223;50.940;4.034;2023-06-10T06:37:50;10.90;;;9.75;;
52266;SDS011;38223;50.940;4.034;2023-06-10T06:40:20;12.50;;;10.08;;
52266;SDS011;38223;50.940;4.034;2023-06-10T06:43:02;10.72;;;9.75;;
52266;SDS011;38223;50.940;4.034;2023-06-10T06:45:37;10.65;;;9.50;;
52266;SDS011;38223;50.940;4.034;2023-06-10T06:48:14;10.30;;;9.25;;
52266;SDS011;38223;50.940;4.034;2023-06-10T06:50:52;10.60;;;9.60;;
52266;SDS011;38223;50.940;4.034;2023-06-10T06:53:29;10.32;;;9.40;;
52266;SDS011;38223;50.940;4.034;2023-06-10T06:56:06;13.03;;;10.03;;
52266;SDS011;38223;50.940;4.034;2023-06-10T06:58:43;10.00;;;9.20;;
52266;SDS011;38223;50.940;4.034;2023-06-10T07:01:20;10.43;;;9.43;;
52266;SDS011;38223;50.940;4.034;2023-06-10T07:03:52;14.43;;;10.05;;
52266;SDS011;38223;50.940;4.034;2023-06-10T07:06:29;10.35;;;9.18;;
52266;SDS011;38223;50.940;4.034;2023-06-10T07:09:05;10.00;;;9.08;;
52266;SDS011;38223;50.940;4.034;2023-06-10T07:11:42;9.88;;;8.98;;
52266;SDS011;38223;50.940;4.034;2023-06-10T07:14:12;9.43;;;8.53;;
52266;SDS011;38223;50.940;4.034;2023-06-10T07:16:45;9.90;;;9.13;;
52266;SDS011;38223;50.940;4.034;2023-06-10T07:19:15;10.23;;;9.38;;
52266;SDS011;38223;50.940;4.034;2023-06-10T07:21:52;11.03;;;9.00;;
52266;SDS011;38223;50.940;4.034;2023-06-10T07:24:22;10.90;;;9.98;;
52266;SDS011;38223;50.940;4.034;2023-06-10T07:26:55;11.15;;;9.25;;
52266;SDS011;38223;50.940;4.034;2023-06-10T07:29:25;9.83;;;8.95;;
52266;SDS011;38223;50.940;4.034;2023-06-10T07:31:54;9.65;;;8.80;;
52266;SDS011;38223;50.940;4.034;2023-06-10T07:34:29;10.63;;;9.18;;
52266;SDS011;38223;50.940;4.034;2023-06-10T07:37:00;9.53;;;8.73;;
52266;SDS011;38223;50.940;4.034;2023-06-10T07:41:59;9.83;;;8.88;;
52266;SDS011;38223;50.940;4.034;2023-06-10T07:44:32;9.60;;;8.45;;
52266;SDS011;38223;50.940;4.034;2023-06-10T07:47:03;11.50;;;8.60;;
52266;SDS011;38223;50.940;4.034;2023-06-10T07:49:34;10.13;;;8.83;;
52266;SDS011;38223;50.940;4.034;2023-06-10T07:52:05;8.78;;;8.03;;
52266;SDS011;38223;50.940;4.034;2023-06-10T07:54:37;9.28;;;8.40;;
52266;SDS011;38223;50.940;4.034;2023-06-10T07:57:10;9.40;;;7.97;;
52266;SDS011;38223;50.940;4.034;2023-06-10T07:59:42;9.45;;;8.35;;
52266;SDS011;38223;50.940;4.034;2023-06-10T08:02:15;10.25;;;8.50;;
52266;SDS011;38223;50.940;4.034;2023-06-10T08:04:46;8.10;;;7.50;;
52266;SDS011;38223;50.940;4.034;2023-06-10T08:07:19;9.03;;;7.90;;
52266;SDS011;38223;50.940;4.034;2023-06-10T08:09:54;9.48;;;8.05;;
52266;SDS011;38223;50.940;4.034;2023-06-10T08:12:24;8.48;;;7.65;;
52266;SDS011;38223;50.940;4.034;2023-06-10T08:14:59;9.93;;;7.92;;
52266;SDS011;38223;50.940;4.034;2023-06-10T08:17:30;7.92;;;7.20;;
52266;SDS011;38223;50.940;4.034;2023-06-10T08:20:03;8.18;;;7.47;;
52266;SDS011;38223;50.940;4.034;2023-06-10T08:22:38;7.92;;;7.25;;
52266;SDS011;38223;50.940;4.034;2023-06-10T08:25:09;7.95;;;7.28;;
52266;SDS011;38223;50.940;4.034;2023-06-10T08:27:42;8.73;;;7.22;;
52266;SDS011;38223;50.940;4.034;2023-06-10T08:30:15;7.60;;;6.85;;
52266;SDS011;38223;50.940;4.034;2023-06-10T08:32:49;7.65;;;7.05;;
52266;SDS011;38223;50.940;4.034;2023-06-10T08:35:21;8.00;;;7.30;;
52266;SDS011;38223;50.940;4.034;2023-06-10T08:37:54;7.40;;;6.80;;
52266;SDS011;38223;50.940;4.034;2023-06-10T08:40:29;9.55;;;6.65;;
52266;SDS011;38223;50.940;4.034;2023-06-10T08:43:05;9.75;;;6.67;;
52266;SDS011;38223;50.940;4.034;2023-06-10T08:45:37;7.67;;;6.87;;
52266;SDS011;38223;50.940;4.034;2023-06-10T08:48:12;7.15;;;6.45;;
52266;SDS011;38223;50.940;4.034;2023-06-10T08:50:42;8.70;;;6.62;;
52266;SDS011;38223;50.940;4.034;2023-06-10T08:53:20;7.25;;;6.55;;
52266;SDS011;38223;50.940;4.034;2023-06-10T08:55:51;8.15;;;6.30;;
52266;SDS011;38223;50.940;4.034;2023-06-10T08:58:23;7.75;;;6.55;;
52266;SDS011;38223;50.940;4.034;2023-06-10T09:00:57;6.90;;;6.03;;
52266;SDS011;38223;50.940;4.034;2023-06-10T09:03:29;6.25;;;5.65;;
52266;SDS011;38223;50.940;4.034;2023-06-10T09:06:07;6.25;;;5.58;;
52266;SDS011;38223;50.940;4.034;2023-06-10T09:08:39;7.35;;;6.03;;
52266;SDS011;38223;50.940;4.034;2023-06-10T09:11:09;8.08;;;5.85;;
52266;SDS011;38223;50.940;4.034;2023-06-10T09:13:41;5.92;;;5.50;;
52266;SDS011;38223;50.940;4.034;2023-06-10T09:16:14;6.47;;;5.97;;
52266;SDS011;38223;50.940;4.034;2023-06-10T09:18:45;6.30;;;5.75;;
52266;SDS011;38223;50.940;4.034;2023-06-10T09:21:19;7.55;;;5.97;;
52266;SDS011;38223;50.940;4.034;2023-06-10T09:24:02;6.10;;;5.62;;
52266;SDS011;38223;50.940;4.034;2023-06-10T09:26:38;6.78;;;6.28;;
52266;SDS011;38223;50.940;4.034;2023-06-10T09:29:10;5.97;;;5.55;;
52266;SDS011;38223;50.940;4.034;2023-06-10T09:31:46;7.33;;;6.15;;
52266;SDS011;38223;50.940;4.034;2023-06-10T09:34:33;6.67;;;5.75;;
52266;SDS011;38223;50.940;4.034;2023-06-10T09:37:12;9.80;;;6.25;;
52266;SDS011;38223;50.940;4.034;2023-06-10T09:39:41;7.20;;;5.85;;
52266;SDS011;38223;50.940;4.034;2023-06-10T09:42:19;6.40;;;5.90;;
52266;SDS011;38223;50.940;4.034;2023-06-10T09:44:57;6.30;;;5.67;;
52266;SDS011;38223;50.940;4.034;2023-06-10T09:47:38;7.35;;;5.87;;
52266;SDS011;38223;50.940;4.034;2023-06-10T09:50:15;12.28;;;5.80;;
52266;SDS011;38223;50.940;4.034;2023-06-10T09:52:53;7.58;;;5.80;;
52266;SDS011;38223;50.940;4.034;2023-06-10T09:55:34;7.30;;;5.37;;
52266;SDS011;38223;50.940;4.034;2023-06-10T09:58:06;7.75;;;4.90;;
52266;SDS011;38223;50.940;4.034;2023-06-10T10:00:56;5.35;;;4.85;;
52266;SDS011;38223;50.940;4.034;2023-06-10T10:03:28;8.43;;;5.03;;
52266;SDS011;38223;50.940;4.034;2023-06-10T10:06:00;8.08;;;5.05;;
52266;SDS011;38223;50.940;4.034;2023-06-10T10:08:32;6.53;;;5.62;;
52266;SDS011;38223;50.940;4.034;2023-06-10T10:11:07;6.95;;;5.58;;
52266;SDS011;38223;50.940;4.034;2023-06-10T10:16:40;6.90;;;5.95;;
52266;SDS011;38223;50.940;4.034;2023-06-10T10:19:28;5.97;;;5.30;;
52266;SDS011;38223;50.940;4.034;2023-06-10T10:22:20;7.15;;;5.58;;
52266;SDS011;38223;50.940;4.034;2023-06-10T10:25:02;6.00;;;5.50;;
52266;SDS011;38223;50.940;4.034;2023-06-10T10:27:44;5.67;;;5.20;;
52266;SDS011;38223;50.940;4.034;2023-06-10T10:30:13;7.97;;;5.40;;
52266;SDS011;38223;50.940;4.034;2023-06-10T10:33:00;10.85;;;5.03;;
52266;SDS011;38223;50.940;4.034;2023-06-10T10:35:28;6.20;;;4.70;;
52266;SDS011;38223;50.940;4.034;2023-06-10T10:38:08;6.87;;;4.62;;
52266;SDS011;38223;50.940;4.034;2023-06-10T10:40:58;6.72;;;4.80;;
52266;SDS011;38223;50.940;4.034;2023-06-10T10:43:43;5.25;;;4.75;;
52266;SDS011;38223;50.940;4.034;2023-06-10T10:46:20;6.08;;;5.35;;
52266;SDS011;38223;50.940;4.034;2023-06-10T10:48:53;5.08;;;4.53;;
52266;SDS011;38223;50.940;4.034;2023-06-10T10:51:33;7.85;;;5.22;;
52266;SDS011;38223;50.940;4.034;2023-06-10T10:54:11;5.10;;;4.45;;
52266;SDS011;38223;50.940;4.034;2023-06-10T10:59:58;4.95;;;4.47;;
52266;SDS011;38223;50.940;4.034;2023-06-10T11:02:41;4.85;;;4.45;;
52266;SDS011;38223;50.940;4.034;2023-06-10T11:05:16;5.12;;;4.72;;
52266;SDS011;38223;50.940;4.034;2023-06-10T11:07:53;5.92;;;4.83;;
52266;SDS011;38223;50.940;4.034;2023-06-10T11:10:31;5.75;;;5.20;;
52266;SDS011;38223;50.940;4.034;2023-06-10T11:13:16;6.80;;;4.57;;
52266;SDS011;38223;50.940;4.034;2023-06-10T11:16:02;4.62;;;4.15;;
52266;SDS011;38223;50.940;4.034;2023-06-10T11:18:46;4.72;;;4.42;;
52266;SDS011;38223;50.940;4.034;2023-06-10T11:21:20;13.08;;;4.78;;
52266;SDS011;38223;50.940;4.034;2023-06-10T11:24:13;4.92;;;4.53;;
52266;SDS011;38223;50.940;4.034;2023-06-10T11:26:52;9.83;;;5.20;;
52266;SDS011;38223;50.940;4.034;2023-06-10T11:35:31;5.30;;;4.87;;
52266;SDS011;38223;50.940;4.034;2023-06-10T11:38:04;5.55;;;5.03;;
52266;SDS011;38223;50.940;4.034;2023-06-10T11:40:39;4.95;;;4.65;;
52266;SDS011;38223;50.940;4.034;2023-06-10T11:43:15;14.47;;;4.85;;
52266;SDS011;38223;50.940;4.034;2023-06-10T11:45:58;6.28;;;5.03;;
52266;SDS011;38223;50.940;4.034;2023-06-10T11:48:30;5.42;;;4.90;;
52266;SDS011;38223;50.940;4.034;2023-06-10T11:51:15;9.08;;;5.40;;
52266;SDS011;38223;50.940;4.034;2023-06-10T11:54:00;7.62;;;4.80;;
52266;SDS011;38223;50.940;4.034;2023-06-10T11:57:04;5.47;;;4.97;;
52266;SDS011;38223;50.940;4.034;2023-06-10T11:59:52;10.38;;;4.80;;
52266;SDS011;38223;50.940;4.034;2023-06-10T12:02:22;6.00;;;5.40;;
52266;SDS011;38223;50.940;4.034;2023-06-10T12:04:54;5.85;;;5.35;;
52266;SDS011;38223;50.940;4.034;2023-06-10T12:07:28;6.50;;;4.65;;
52266;SDS011;38223;50.940;4.034;2023-06-10T12:10:03;4.80;;;4.30;;
52266;SDS011;38223;50.940;4.034;2023-06-10T12:12:38;8.38;;;4.78;;
52266;SDS011;38223;50.940;4.034;2023-06-10T12:15:07;7.37;;;4.35;;
52266;SDS011;38223;50.940;4.034;2023-06-10T12:17:38;7.65;;;4.65;;
52266;SDS011;38223;50.940;4.034;2023-06-10T12:20:46;6.40;;;4.72;;
52266;SDS011;38223;50.940;4.034;2023-06-10T12:22:58;5.17;;;4.78;;
52266;SDS011;38223;50.940;4.034;2023-06-10T12:25:31;5.22;;;4.80;;
52266;SDS011;38223;50.940;4.034;2023-06-10T12:28:03;4.87;;;4.47;;
52266;SDS011;38223;50.940;4.034;2023-06-10T12:30:32;5.72;;;5.15;;
52266;SDS011;38223;50.940;4.034;2023-06-10T12:33:04;6.08;;;5.12;;
52266;SDS011;38223;50.940;4.034;2023-06-10T12:35:46;11.38;;;5.95;;
52266;SDS011;38223;50.940;4.034;2023-06-10T12:38:25;6.67;;;5.83;;
52266;SDS011;38223;50.940;4.034;2023-06-10T12:41:05;6.72;;;4.85;;
52266;SDS011;38223;50.940;4.034;2023-06-10T12:43:35;5.25;;;4.85;;
52266;SDS011;38223;50.940;4.034;2023-06-10T12:46:10;6.30;;;4.80;;
52266;SDS011;38223;50.940;4.034;2023-06-10T12:48:59;7.05;;;4.92;;
52266;SDS011;38223;50.940;4.034;2023-06-10T12:51:20;6.10;;;5.08;;
52266;SDS011;38223;50.940;4.034;2023-06-10T12:53:51;5.72;;;4.70;;
52266;SDS011;38223;50.940;4.034;2023-06-10T12:56:19;6.72;;;5.10;;
52266;SDS011;38223;50.940;4.034;2023-06-10T12:58:53;6.72;;;5.33;;
52266;SDS011;38223;50.940;4.034;2023-06-10T13:01:24;5.40;;;4.90;;
52266;SDS011;38223;50.940;4.034;2023-06-10T13:03:58;6.03;;;5.00;;
52266;SDS011;38223;50.940;4.034;2023-06-10T13:06:28;8.70;;;4.97;;
52266;SDS011;38223;50.940;4.034;2023-06-10T13:08:58;5.80;;;5.10;;
52266;SDS011;38223;50.940;4.034;2023-06-10T13:11:28;7.90;;;5.75;;
52266;SDS011;38223;50.940;4.034;2023-06-10T13:13:58;6.53;;;5.90;;
52266;SDS011;38223;50.940;4.034;2023-06-10T13:16:30;5.75;;;5.20;;
52266;SDS011;38223;50.940;4.034;2023-06-10T13:19:04;6.10;;;5.50;;
52266;SDS011;38223;50.940;4.034;2023-06-10T13:21:37;6.90;;;5.05;;
52266;SDS011;38223;50.940;4.034;2023-06-10T13:24:06;6.70;;;5.37;;
52266;SDS011;38223;50.940;4.034;2023-06-10T13:26:41;5.83;;;5.12;;
52266;SDS011;38223;50.940;4.034;2023-06-10T13:29:11;5.65;;;5.17;;
52266;SDS011;38223;50.940;4.034;2023-06-10T13:31:45;7.78;;;5.62;;
52266;SDS011;38223;50.940;4.034;2023-06-10T13:34:15;7.50;;;5.15;;
52266;SDS011;38223;50.940;4.034;2023-06-10T13:36:42;6.05;;;5.45;;
52266;SDS011;38223;50.940;4.034;2023-06-10T13:39:12;6.25;;;5.67;;
52266;SDS011;38223;50.940;4.034;2023-06-10T13:41:43;7.08;;;5.72;;
52266;SDS011;38223;50.940;4.034;2023-06-10T13:44:10;5.45;;;4.67;;
52266;SDS011;38223;50.940;4.034;2023-06-10T13:46:44;5.85;;;5.28;;
52266;SDS011;38223;50.940;4.034;2023-06-10T13:49:15;6.42;;;4.90;;
52266;SDS011;38223;50.940;4.034;2023-06-10T13:51:48;9.03;;;5.58;;
52266;SDS011;38223;50.940;4.034;2023-06-10T13:54:17;5.87;;;5.20;;
52266;SDS011;38223;50.940;4.034;2023-06-10T13:56:45;7.15;;;5.37;;
52266;SDS011;38223;50.940;4.034;2023-06-10T13:59:15;7.03;;;6.33;;
52266;SDS011;38223;50.940;4.034;2023-06-10T14:01:49;6.67;;;5.83;;
52266;SDS011;38223;50.940;4.034;2023-06-10T14:04:19;5.10;;;4.67;;
52266;SDS011;38223;50.940;4.034;2023-06-10T14:06:48;5.53;;;4.93;;
52266;SDS011;38223;50.940;4.034;2023-06-10T14:09:18;13.03;;;5.35;;
52266;SDS011;38223;50.940;4.034;2023-06-10T14:11:48;6.08;;;5.12;;
52266;SDS011;38223;50.940;4.034;2023-06-10T14:14:19;7.10;;;6.12;;
52266;SDS011;38223;50.940;4.034;2023-06-10T14:16:59;12.60;;;5.25;;
52266;SDS011;38223;50.940;4.034;2023-06-10T14:19:39;5.75;;;4.80;;
52266;SDS011;38223;50.940;4.034;2023-06-10T14:22:11;6.25;;;5.47;;
52266;SDS011;38223;50.940;4.034;2023-06-10T14:24:42;6.15;;;5.33;;
52266;SDS011;38223;50.940;4.034;2023-06-10T14:27:14;9.90;;;5.20;;
52266;SDS011;38223;50.940;4.034;2023-06-10T14:29:54;6.65;;;5.20;;
52266;SDS011;38223;50.940;4.034;2023-06-10T14:32:25;5.37;;;4.92;;
52266;SDS011;38223;50.940;4.034;2023-06-10T14:35:00;9.65;;;5.47;;
52266;SDS011;38223;50.940;4.034;2023-06-10T14:37:27;5.55;;;5.10;;
52266;SDS011;38223;50.940;4.034;2023-06-10T14:40:05;6.12;;;5.28;;
52266;SDS011;38223;50.940;4.034;2023-06-10T14:42:58;8.18;;;5.58;;
52266;SDS011;38223;50.940;4.034;2023-06-10T14:45:34;5.35;;;4.85;;
52266;SDS011;38223;50.940;4.034;2023-06-10T14:48:12;6.22;;;5.50;;
52266;SDS011;38223;50.940;4.034;2023-06-10T14:50:50;5.83;;;5.40;;
52266;SDS011;38223;50.940;4.034;2023-06-10T14:53:19;7.58;;;5.40;;
52266;SDS011;38223;50.940;4.034;2023-06-10T14:55:48;5.65;;;5.25;;
52266;SDS011;38223;50.940;4.034;2023-06-10T14:58:17;5.80;;;5.20;;
52266;SDS011;38223;50.940;4.034;2023-06-10T15:00:45;5.47;;;5.00;;
52266;SDS011;38223;50.940;4.034;2023-06-10T15:03:12;5.90;;;5.37;;
52266;SDS011;38223;50.940;4.034;2023-06-10T15:05:40;8.88;;;5.90;;
52266;SDS011;38223;50.940;4.034;2023-06-10T15:08:07;5.72;;;5.08;;
52266;SDS011;38223;50.940;4.034;2023-06-10T15:10:39;7.37;;;5.10;;
52266;SDS011;38223;50.940;4.034;2023-06-10T15:13:20;5.55;;;4.70;;
52266;SDS011;38223;50.940;4.034;2023-06-10T15:15:53;5.90;;;4.87;;
52266;SDS011;38223;50.940;4.034;2023-06-10T15:18:27;7.00;;;5.58;;
52266;SDS011;38223;50.940;4.034;2023-06-10T15:21:16;5.85;;;5.37;;
52266;SDS011;38223;50.940;4.034;2023-06-10T15:23:56;6.65;;;5.95;;
52266;SDS011;38223;50.940;4.034;2023-06-10T15:26:28;6.22;;;5.40;;
52266;SDS011;38223;50.940;4.034;2023-06-10T15:29:03;6.55;;;5.55;;
52266;SDS011;38223;50.940;4.034;2023-06-10T15:31:44;6.17;;;5.62;;
52266;SDS011;38223;50.940;4.034;2023-06-10T15:34:19;7.65;;;5.67;;
52266;SDS011;38223;50.940;4.034;2023-06-10T15:36:55;6.08;;;5.50;;
52266;SDS011;38223;50.940;4.034;2023-06-10T15:39:39;7.42;;;5.62;;
52266;SDS011;38223;50.940;4.034;2023-06-10T15:42:17;5.62;;;5.12;;
52266;SDS011;38223;50.940;4.034;2023-06-10T15:44:52;13.83;;;5.78;;
52266;SDS011;38223;50.940;4.034;2023-06-10T15:47:33;6.90;;;5.80;;
52266;SDS011;38223;50.940;4.034;2023-06-10T15:50:06;7.70;;;5.92;;
52266;SDS011;38223;50.940;4.034;2023-06-10T15:52:41;5.90;;;5.30;;
52266;SDS011;38223;50.940;4.034;2023-06-10T15:55:14;5.30;;;4.90;;
52266;SDS011;38223;50.940;4.034;2023-06-10T15:57:53;7.12;;;5.85;;
52266;SDS011;38223;50.940;4.034;2023-06-10T16:00:40;6.28;;;5.67;;
52266;SDS011;38223;50.940;4.034;2023-06-10T16:03:18;7.47;;;5.40;;
52266;SDS011;38223;50.940;4.034;2023-06-10T16:05:53;6.53;;;5.80;;